createdAt,value
2022-10-06T00:02:28.106Z,100915.22
2022-10-06T00:04:59.453Z,100918.75
2022-10-06T00:07:30.770Z,100920.50
2022-10-06T00:10:02.129Z,100930.28
2022-10-06T00:12:45.304Z,100936.56
2022-10-06T00:15:21.757Z,100932.22
2022-10-06T00:17:53.190Z,100945.50
2022-10-06T00:20:26.740Z,100954.34
2022-10-06T00:22:58.293Z,100965.03
2022-10-06T00:25:29.633Z,100956.31
2022-10-06T00:28:01.103Z,100959.69
2022-10-06T00:30:32.444Z,100966.78
2022-10-06T00:33:04.493Z,100971.28
2022-10-06T00:35:35.915Z,100979.25
2022-10-06T00:38:07.259Z,100963.41
2022-10-06T00:40:49.977Z,100946.69
2022-10-06T00:43:42.348Z,100973.91
2022-10-06T00:46:36.512Z,100987.31
2022-10-06T00:49:28.330Z,100982.94
2022-10-06T00:52:06.922Z,100974.19
2022-10-06T00:54:38.885Z,100988.41
2022-10-06T00:57:10.978Z,100980.53
2022-10-06T00:59:42.468Z,100964.00
2022-10-06T01:02:22.107Z,100985.00
2022-10-06T01:04:57.766Z,100998.38
2022-10-06T01:07:30.049Z,100982.38
2022-10-06T01:10:01.468Z,100994.25
2022-10-06T01:12:33.753Z,100995.28
2022-10-06T01:15:05.766Z,100996.53
2022-10-06T01:17:43.997Z,101010.88
2022-10-06T01:20:18.225Z,101002.50
2022-10-06T01:22:55.449Z,101011.59
2022-10-06T01:25:26.890Z,101021.63
2022-10-06T01:27:59.183Z,101034.34
2022-10-06T01:30:41.505Z,101014.41
2022-10-06T01:33:12.816Z,101033.88
2022-10-06T01:35:49.014Z,101040.38
2022-10-06T01:38:21.790Z,101047.69
2022-10-06T01:40:53.495Z,101050.44
2022-10-06T01:43:24.946Z,101063.06
2022-10-06T01:45:57.031Z,101043.81
2022-10-06T01:48:28.902Z,101068.63
2022-10-06T01:51:00.406Z,101066.22
2022-10-06T01:53:32.013Z,101068.88
2022-10-06T01:56:03.338Z,101068.16
2022-10-06T01:58:34.693Z,101076.25
2022-10-06T02:01:07.156Z,101079.97
2022-10-06T02:03:39.918Z,101090.72
2022-10-06T02:06:11.635Z,101097.13
2022-10-06T02:08:43.023Z,101106.03
2022-10-06T02:15:07.287Z,101116.28
2022-10-06T02:17:38.620Z,101120.75
2022-10-06T02:20:09.873Z,101124.44
2022-10-06T02:22:43.577Z,101119.38
2022-10-06T02:25:15.194Z,101131.16
2022-10-06T02:27:46.478Z,101153.28
2022-10-06T02:30:17.741Z,101147.16
2022-10-06T02:32:49.020Z,101154.16
2022-10-06T02:35:20.305Z,101150.63
2022-10-06T02:37:51.734Z,101152.31
2022-10-06T02:40:23.034Z,101167.22
2022-10-06T02:42:54.278Z,101173.34
2022-10-06T02:45:25.542Z,101164.50
2022-10-06T02:47:56.933Z,101166.13
2022-10-06T02:50:28.191Z,101177.41
2022-10-06T02:52:59.533Z,101171.22
2022-10-06T02:55:31.168Z,101178.28
2022-10-06T02:58:03.537Z,101183.38
2022-10-06T03:00:34.786Z,101192.38
2022-10-06T03:03:06.166Z,101203.22
2022-10-06T03:05:37.445Z,101194.56
2022-10-06T03:08:10.790Z,101187.72
2022-10-06T03:10:42.034Z,101211.75
2022-10-06T03:13:13.290Z,101226.16
2022-10-06T03:15:44.565Z,101221.03
2022-10-06T03:18:15.873Z,101226.47
2022-10-06T03:20:47.134Z,101238.13
2022-10-06T03:23:18.571Z,101221.50
2022-10-06T03:25:57.500Z,101223.31
2022-10-06T03:28:29.274Z,101258.84
2022-10-06T03:31:06.565Z,101237.81
2022-10-06T03:33:37.957Z,101264.34
2022-10-06T03:36:17.010Z,101275.06
2022-10-06T03:38:48.409Z,101264.53
2022-10-06T03:41:25.320Z,101284.94
2022-10-06T03:43:59.025Z,101277.00
2022-10-06T03:46:32.713Z,101287.69
2022-10-06T03:49:04.231Z,101280.63
2022-10-06T03:51:38.352Z,101294.81
2022-10-06T03:54:10.815Z,101288.63
2022-10-06T03:56:42.552Z,101284.38
2022-10-06T03:59:16.403Z,101300.28
2022-10-06T04:01:48.483Z,101301.25
2022-10-06T04:04:19.898Z,101315.47
2022-10-06T04:06:51.327Z,101305.78
2022-10-06T04:09:22.768Z,101308.47
2022-10-06T04:11:54.071Z,101304.19
2022-10-06T04:14:25.346Z,101313.03
2022-10-06T04:16:57.623Z,101326.25
2022-10-06T04:19:28.864Z,101332.47
2022-10-06T04:22:00.191Z,101341.34
2022-10-06T04:24:31.520Z,101352.00
2022-10-06T04:27:21.394Z,101343.16
2022-10-06T04:29:52.735Z,101345.84
2022-10-06T04:32:24.360Z,101365.41
2022-10-06T04:34:55.711Z,101369.00
2022-10-06T04:37:28.346Z,101363.72
2022-10-06T04:39:59.661Z,101363.84
2022-10-06T04:42:34.877Z,101371.00
2022-10-06T04:45:07.565Z,101372.72
2022-10-06T04:47:38.818Z,101393.22
2022-10-06T04:50:10.143Z,101386.22
2022-10-06T04:52:41.429Z,101396.84
2022-10-06T04:55:12.742Z,101396.03
2022-10-06T04:57:43.992Z,101400.53
2022-10-06T05:00:25.114Z,101405.03
2022-10-06T05:02:56.446Z,101417.53
2022-10-06T05:05:27.718Z,101417.59
2022-10-06T05:07:58.981Z,101432.72
2022-10-06T05:10:30.224Z,101432.75
2022-10-06T05:13:03.701Z,101438.13
2022-10-06T05:15:35.062Z,101440.91
2022-10-06T05:18:06.534Z,101455.03
2022-10-06T05:20:37.783Z,101438.41
2022-10-06T05:23:09.251Z,101465.75
2022-10-06T05:25:50.495Z,101458.72
2022-10-06T05:28:23.564Z,101475.53
2022-10-06T05:30:56.745Z,101477.50
2022-10-06T05:33:30.693Z,101488.88
2022-10-06T05:36:09.306Z,101492.50
2022-10-06T05:38:41.045Z,101502.31
2022-10-06T05:41:21.065Z,101506.75
2022-10-06T05:43:53.201Z,101513.88
2022-10-06T05:46:28.297Z,101511.25
2022-10-06T05:49:06.010Z,101526.34
2022-10-06T05:51:39.938Z,101534.31
2022-10-06T05:54:11.228Z,101529.00
2022-10-06T05:56:42.498Z,101541.38
2022-10-06T05:59:13.741Z,101536.09
2022-10-06T06:01:45.154Z,101557.31
2022-10-06T06:04:16.459Z,101530.84
2022-10-06T06:06:48.759Z,101558.22
2022-10-06T06:09:21.401Z,101565.31
2022-10-06T06:11:52.955Z,101578.59
2022-10-06T06:14:48.862Z,101576.75
2022-10-06T06:17:20.121Z,101571.41
2022-10-06T06:19:51.373Z,101582.81
2022-10-06T06:22:22.854Z,101595.16
2022-10-06T06:24:54.160Z,101593.31
2022-10-06T06:27:26.305Z,101590.66
2022-10-06T06:29:58.182Z,101603.81
2022-10-06T06:32:29.450Z,101587.91
2022-10-06T06:35:00.730Z,101611.69
2022-10-06T06:37:32.091Z,101630.19
2022-10-06T06:40:03.866Z,101627.44
2022-10-06T06:42:35.164Z,101638.94
2022-10-06T06:45:07.151Z,101625.50
2022-10-06T06:47:38.967Z,101636.94
2022-10-06T06:50:10.691Z,101640.41
2022-10-06T06:52:43.847Z,101651.88
2022-10-06T06:55:15.153Z,101657.09
2022-10-06T06:57:46.448Z,101658.75
2022-10-06T07:00:17.913Z,101664.84
2022-10-06T07:02:56.011Z,101654.19
2022-10-06T07:05:27.395Z,101666.34
2022-10-06T07:07:59.481Z,101667.25
2022-10-06T07:10:31.495Z,101673.25
2022-10-06T07:13:04.496Z,101679.28
2022-10-06T07:15:54.265Z,101696.97
2022-10-06T07:18:44.409Z,101695.94
2022-10-06T07:21:34.369Z,101708.31
2022-10-06T07:24:24.487Z,101706.47
2022-10-06T07:26:55.773Z,101717.91
2022-10-06T07:29:27.774Z,101710.66
2022-10-06T07:31:59.029Z,101721.97
2022-10-06T07:34:30.432Z,101728.91
2022-10-06T07:37:04.171Z,101733.31
2022-10-06T07:39:37.814Z,101728.03
2022-10-06T07:42:13.122Z,101742.03
2022-10-06T07:45:05.755Z,101747.03
2022-10-06T07:47:39.972Z,101760.28
2022-10-06T07:50:12.928Z,101754.06
2022-10-06T07:52:47.305Z,101768.97
2022-10-06T07:55:18.968Z,101765.38
2022-10-06T07:57:51.165Z,101767.84
2022-10-06T08:00:22.695Z,101776.81
2022-10-06T08:02:57.025Z,101785.56
2022-10-06T08:05:28.364Z,101778.44
2022-10-06T08:07:59.620Z,101788.88
2022-10-06T08:10:31.572Z,101786.88
2022-10-06T08:13:07.315Z,101790.28
2022-10-06T08:15:38.848Z,101799.00
2022-10-06T08:18:27.209Z,101804.97
2022-10-06T08:21:08.702Z,101796.84
2022-10-06T08:23:42.346Z,101809.19
2022-10-06T08:26:14.717Z,101814.50
2022-10-06T08:28:50.961Z,101826.94
2022-10-06T08:31:23.560Z,101817.91
2022-10-06T08:33:56.740Z,101828.56
2022-10-06T08:36:32.065Z,101831.94
2022-10-06T08:39:03.973Z,101838.03
2022-10-06T08:41:40.256Z,101831.59
2022-10-06T08:44:19.098Z,101837.72
2022-10-06T08:46:57.185Z,101840.31
2022-10-06T08:49:40.517Z,101845.69
2022-10-06T08:52:41.196Z,101860.75
2022-10-06T08:55:18.563Z,101854.34
2022-10-06T08:58:18.057Z,101859.63
2022-10-06T09:00:49.549Z,101860.63
2022-10-06T09:03:25.259Z,101873.81
2022-10-06T09:06:18.237Z,101869.03
2022-10-06T09:08:54.559Z,101878.78
2022-10-06T09:11:37.795Z,101890.81
2022-10-06T09:14:24.438Z,101881.78
2022-10-06T09:17:02.668Z,101887.41
2022-10-06T09:19:41.283Z,101901.63
2022-10-06T09:22:21.121Z,101896.19
2022-10-06T09:24:57.189Z,101895.03
2022-10-06T09:27:33.568Z,101904.69
2022-10-06T09:30:06.145Z,101902.69
2022-10-06T09:32:40.284Z,101909.56
2022-10-06T09:35:18.812Z,101914.53
2022-10-06T09:37:58.404Z,101907.00
2022-10-06T09:40:49.224Z,101913.72
2022-10-06T09:43:29.476Z,101917.38
2022-10-06T09:46:41.598Z,101918.75
2022-10-06T09:49:12.837Z,101928.63
2022-10-06T09:52:02.680Z,101923.84
2022-10-06T09:54:34.934Z,101934.09
2022-10-06T09:57:20.182Z,101930.06
2022-10-06T09:59:52.030Z,101927.94
2022-10-06T10:02:40.846Z,101941.25
2022-10-06T10:05:20.957Z,101943.84
2022-10-06T10:08:13.815Z,101958.84
2022-10-06T10:10:45.070Z,101960.63
2022-10-06T10:13:26.603Z,101958.25
2022-10-06T10:16:02.831Z,101971.75
2022-10-06T10:18:35.360Z,101964.88
2022-10-06T10:21:08.531Z,101957.47
2022-10-06T10:23:55.276Z,101955.13
2022-10-06T10:26:54.881Z,101974.22
2022-10-06T10:29:54.561Z,101976.44
2022-10-06T10:33:00.774Z,101965.56
2022-10-06T10:35:37.191Z,101976.72
2022-10-06T10:38:26.819Z,101976.63
2022-10-06T10:41:13.110Z,101976.63
2022-10-06T10:44:10.366Z,101963.94
2022-10-06T10:46:49.615Z,101989.63
2022-10-06T10:49:31.941Z,101985.97
2022-10-06T10:52:14.009Z,101986.44
2022-10-06T10:55:06.788Z,101993.94
2022-10-06T10:57:41.202Z,101988.25
2022-10-06T11:00:20.739Z,101994.41
2022-10-06T11:02:54.880Z,101996.31
2022-10-06T11:05:45.180Z,102000.97
2022-10-06T11:08:38.288Z,101978.28
2022-10-06T11:11:19.870Z,101994.91
2022-10-06T11:13:54.480Z,101999.28
2022-10-06T11:16:51.254Z,101998.81
2022-10-06T11:20:16.201Z,101996.31
2022-10-06T11:22:58.406Z,101996.47
2022-10-06T11:25:46.339Z,102004.59
2022-10-06T11:28:22.871Z,101997.53
2022-10-06T11:31:03.673Z,102016.13
2022-10-06T11:33:58.243Z,102006.06
2022-10-06T11:37:06.366Z,102006.94
2022-10-06T11:40:15.759Z,102004.00
2022-10-06T11:43:02.603Z,102009.28
2022-10-06T11:45:45.860Z,101993.22
2022-10-06T11:48:26.722Z,102011.75
2022-10-06T11:51:21.422Z,102008.44
2022-10-06T11:53:53.053Z,102021.81
2022-10-06T11:56:36.639Z,101993.22
2022-10-06T11:59:25.541Z,102016.22
2022-10-06T12:01:58.107Z,102013.84
2022-10-06T12:04:30.112Z,102007.72
2022-10-06T12:07:02.988Z,102005.75
2022-10-06T12:09:46.155Z,102014.56
2022-10-06T12:12:18.838Z,102019.00
2022-10-06T12:16:58.196Z,102016.63
2022-10-06T12:17:55.397Z,102009.28
2022-10-06T12:20:45.204Z,102005.34
2022-10-06T12:23:36.690Z,102000.06
2022-10-06T12:26:23.609Z,102006.94
2022-10-06T12:29:03.367Z,102008.03
2022-10-06T12:31:50.586Z,101997.03
2022-10-06T12:34:54.373Z,101990.78
2022-10-06T12:37:28.758Z,101998.53
2022-10-06T12:40:38.021Z,102003.31
2022-10-06T12:43:19.084Z,101987.59
2022-10-06T12:46:15.467Z,102010.63
2022-10-06T12:49:02.933Z,102015.34
2022-10-06T12:51:38.731Z,102016.22
2022-10-06T12:54:35.444Z,102017.69
2022-10-06T12:57:20.221Z,102022.66
2022-10-06T12:59:51.648Z,102025.09
2022-10-06T13:02:27.014Z,102034.00
2022-10-06T13:05:09.389Z,102011.13
2022-10-06T13:08:04.912Z,102021.59
2022-10-06T13:10:36.357Z,102046.22
2022-10-06T13:13:20.667Z,102027.50
2022-10-06T13:15:55.838Z,102022.16
2022-10-06T13:18:27.589Z,102029.78
2022-10-06T13:21:00.654Z,102024.13
2022-10-06T13:23:37.565Z,102023.16
2022-10-06T13:26:35.347Z,102028.38
2022-10-06T13:29:25.311Z,102027.44
2022-10-06T13:31:56.713Z,102028.38
2022-10-06T13:34:34.745Z,102020.25
2022-10-06T13:37:06.190Z,102029.09
2022-10-06T13:39:38.378Z,102027.34
2022-10-06T13:42:16.178Z,102015.84
2022-10-06T13:44:58.946Z,102024.84
2022-10-06T13:47:30.559Z,102020.78
2022-10-06T13:50:19.447Z,102031.78
2022-10-06T13:52:51.241Z,102026.25
2022-10-06T13:55:27.458Z,102018.19
2022-10-06T13:58:01.978Z,102022.75
2022-10-06T14:00:49.615Z,102012.13
2022-10-06T14:03:24.164Z,102020.03
2022-10-06T14:06:18.844Z,102009.38
2022-10-06T14:08:56.482Z,102015.78
2022-10-06T14:11:29.662Z,102026.03
2022-10-06T14:14:03.071Z,102022.50
2022-10-06T14:16:34.364Z,102036.78
2022-10-06T14:19:05.807Z,102027.00
2022-10-06T14:21:45.566Z,102016.25
2022-10-06T14:24:16.926Z,102040.22
2022-10-06T14:26:54.705Z,102026.81
2022-10-06T14:29:26.419Z,102032.16
2022-10-06T14:32:08.528Z,102034.84
2022-10-06T14:34:41.918Z,102033.03
2022-10-06T14:37:15.871Z,102034.09
2022-10-06T14:39:50.445Z,102023.44
2022-10-06T14:42:26.546Z,102034.97
2022-10-06T14:44:58.060Z,102038.56
2022-10-06T14:47:30.287Z,102043.09
2022-10-06T14:50:01.539Z,102036.09
2022-10-06T14:52:32.830Z,102038.03
2022-10-06T14:55:05.505Z,102037.28
2022-10-06T14:57:36.800Z,102037.47
2022-10-06T15:00:08.988Z,102032.19
2022-10-06T15:02:40.472Z,102035.91
2022-10-06T15:05:11.803Z,102046.56
2022-10-06T15:08:01.900Z,102038.59
2022-10-06T15:10:33.214Z,102040.69
2022-10-06T15:13:09.179Z,102040.13
2022-10-06T15:15:40.438Z,102031.41
2022-10-06T15:18:11.789Z,102039.78
2022-10-06T15:20:47.197Z,102028.63
2022-10-06T15:23:18.455Z,102038.47
2022-10-06T15:26:11.644Z,102025.28
2022-10-06T15:29:00.950Z,102047.97
2022-10-06T15:31:46.560Z,102044.72
2022-10-06T15:34:19.930Z,102048.59
2022-10-06T15:36:52.857Z,102050.63
2022-10-06T15:39:26.949Z,102045.50
2022-10-06T15:41:59.323Z,102050.19
2022-10-06T15:44:34.662Z,102040.63
2022-10-06T15:47:06.354Z,102056.09
2022-10-06T15:49:40.597Z,102049.19
2022-10-06T15:52:12.966Z,102053.84
2022-10-06T15:54:46.381Z,102051.38
2022-10-06T15:57:20.980Z,102040.19
2022-10-06T15:59:52.755Z,102060.69
2022-10-06T16:02:24.165Z,102064.44
2022-10-06T16:05:16.077Z,102064.63
2022-10-06T16:07:47.333Z,102068.44
2022-10-06T16:10:18.566Z,102067.69
2022-10-06T16:12:49.830Z,102058.91
2022-10-06T16:15:21.099Z,102073.38
2022-10-06T16:17:52.445Z,102069.13
2022-10-06T16:20:23.715Z,102067.50
2022-10-06T16:22:55.127Z,102065.06
2022-10-06T16:25:26.391Z,102061.63
2022-10-06T16:27:57.720Z,102068.06
2022-10-06T16:30:29.669Z,102065.59
2022-10-06T16:33:01.029Z,102073.84
2022-10-06T16:35:32.330Z,102069.56
2022-10-06T16:38:03.588Z,102084.91
2022-10-06T16:40:34.941Z,102083.28
2022-10-06T16:43:06.287Z,102083.50
2022-10-06T16:45:37.533Z,102082.75
2022-10-06T16:48:09.773Z,102085.63
2022-10-06T16:50:41.021Z,102091.13
2022-10-06T16:53:16.157Z,102094.84
2022-10-06T16:55:48.686Z,102100.34
2022-10-06T16:58:19.925Z,102104.03
2022-10-06T17:00:58.365Z,102076.72
2022-10-06T17:03:29.687Z,102106.13
2022-10-06T17:06:02.593Z,102094.63
2022-10-06T17:08:35.025Z,102092.06
2022-10-06T17:11:21.006Z,102095.72
2022-10-06T17:13:55.219Z,102094.03
2022-10-06T17:16:29.960Z,102099.47
2022-10-06T17:19:01.879Z,102096.88
2022-10-06T17:21:54.068Z,102098.75
2022-10-06T17:24:27.710Z,102101.47
2022-10-06T17:26:59.123Z,102107.75
2022-10-06T17:29:30.439Z,102105.19
2022-10-06T17:32:02.609Z,102087.50
2022-10-06T17:34:34.362Z,102084.03
2022-10-06T17:37:05.758Z,102094.72
2022-10-06T17:39:37.015Z,102102.72
2022-10-06T17:42:08.351Z,102101.00
2022-10-06T17:44:39.968Z,102101.94
2022-10-06T17:47:12.216Z,102109.97
2022-10-06T17:49:44.243Z,102094.94
2022-10-06T17:52:15.628Z,102106.47
2022-10-06T17:54:46.885Z,102105.63
2022-10-06T17:57:19.400Z,102114.50
2022-10-06T17:59:50.641Z,102111.88
2022-10-06T18:02:21.949Z,102102.19
2022-10-06T18:04:53.306Z,102110.19
2022-10-06T18:07:24.714Z,102106.66
2022-10-06T18:10:14.523Z,102114.66
2022-10-06T18:12:46.469Z,102116.44
2022-10-06T18:15:17.757Z,102111.13
2022-10-06T18:17:50.470Z,102109.34
2022-10-06T18:20:21.829Z,102112.91
2022-10-06T18:22:53.386Z,102106.72
2022-10-06T18:25:26.915Z,102109.38
2022-10-06T18:27:58.447Z,102112.03
2022-10-06T18:30:30.908Z,102110.22
2022-10-06T18:36:14.656Z,102103.13
2022-10-06T18:38:47.224Z,102108.44
2022-10-06T18:41:19.575Z,102103.13
2022-10-06T18:43:51.241Z,102112.00
2022-10-06T18:46:41.515Z,102109.34
2022-10-06T18:49:15.834Z,102111.09
2022-10-06T18:51:49.326Z,102111.97
2022-10-06T18:54:26.728Z,102113.72
2022-10-06T18:56:58.124Z,102108.41
2022-10-06T18:59:32.125Z,102125.22
2022-10-06T19:02:04.493Z,102108.38
2022-10-06T19:04:35.874Z,102114.56
2022-10-06T19:07:07.190Z,102118.97
2022-10-06T19:09:41.506Z,102119.84
2022-10-06T19:12:16.606Z,102117.16
2022-10-06T19:14:47.986Z,102134.00
2022-10-06T19:17:22.657Z,102120.69
2022-10-06T19:19:55.246Z,102120.69
2022-10-06T19:22:26.647Z,102125.97
2022-10-06T19:24:58.033Z,102133.06
2022-10-06T19:27:29.841Z,102124.19
2022-10-06T19:30:01.107Z,102113.53
2022-10-06T19:32:32.767Z,102120.63
2022-10-06T19:35:09.247Z,102123.25
2022-10-06T19:37:42.055Z,102104.59
2022-10-06T19:40:13.592Z,102123.25
2022-10-06T19:42:47.841Z,102125.00
2022-10-06T19:45:20.640Z,102115.19
2022-10-06T19:47:52.061Z,102117.88
2022-10-06T19:50:23.336Z,102124.97
2022-10-06T19:52:55.425Z,102124.97
2022-10-06T19:55:29.361Z,102132.94
2022-10-06T19:58:00.896Z,102123.19
2022-10-06T20:00:32.198Z,102120.50
2022-10-06T20:03:07.333Z,102123.16
2022-10-06T20:05:38.967Z,102103.66
2022-10-06T20:08:10.309Z,102123.16
2022-10-06T20:10:41.614Z,102132.88
2022-10-06T20:13:12.890Z,102125.81
2022-10-06T20:15:44.153Z,102122.28
2022-10-06T20:18:15.821Z,102117.84
2022-10-06T20:20:56.421Z,102121.41
2022-10-06T20:23:27.690Z,102097.44
2022-10-06T20:26:31.842Z,102128.47
2022-10-06T20:29:06.501Z,102125.81
2022-10-06T20:31:40.645Z,102125.78
2022-10-06T20:34:15.140Z,102130.22
2022-10-06T20:36:47.954Z,102116.00
2022-10-06T20:39:40.459Z,102133.72
2022-10-06T20:42:15.132Z,102127.50
2022-10-06T20:44:47.070Z,102131.03
2022-10-06T20:47:18.392Z,102139.84
2022-10-06T20:49:54.989Z,102135.38
2022-10-06T20:52:26.322Z,102132.69
2022-10-06T20:54:57.640Z,102132.66
2022-10-06T20:57:33.771Z,102132.66
2022-10-06T21:00:07.192Z,102129.09
2022-10-06T21:02:39.000Z,102121.06
2022-10-06T21:05:10.487Z,102123.66
2022-10-06T21:07:42.657Z,102102.38
2022-10-06T21:10:14.344Z,102125.44
2022-10-06T21:12:46.200Z,102129.84
2022-10-06T21:15:17.720Z,102134.22
2022-10-06T21:17:49.303Z,102124.44
2022-10-06T21:20:20.648Z,102127.09
2022-10-06T21:22:52.758Z,102129.72
2022-10-06T21:25:24.169Z,102125.25
2022-10-06T21:27:55.578Z,102103.91
2022-10-06T21:30:27.166Z,102128.69
2022-10-06T21:32:58.678Z,102117.19
2022-10-06T21:35:30.069Z,102128.66
2022-10-06T21:38:01.455Z,102130.41
2022-10-06T21:40:37.232Z,102122.41
2022-10-06T21:43:08.612Z,102124.16
2022-10-06T21:45:40.013Z,102128.53
2022-10-06T21:48:11.464Z,102125.88
2022-10-06T21:50:42.957Z,102117.00
2022-10-06T21:53:14.341Z,102120.53
2022-10-06T21:55:45.756Z,102115.19
2022-10-06T21:58:17.164Z,102111.63
2022-10-06T22:00:48.578Z,102095.63
2022-10-06T22:03:19.954Z,102108.06
2022-10-06T22:05:51.316Z,102108.00
2022-10-06T22:08:22.756Z,102109.75
2022-10-06T22:10:54.117Z,102096.44
2022-10-06T22:13:25.496Z,102107.00
2022-10-06T22:15:57.112Z,102089.22
2022-10-06T22:18:28.665Z,102111.34
2022-10-06T22:21:00.877Z,102114.00
2022-10-06T22:23:32.247Z,102106.00
2022-10-06T22:26:03.738Z,102095.31
2022-10-06T22:28:35.727Z,102096.16
2022-10-06T22:31:09.871Z,102100.56
2022-10-06T22:33:42.914Z,102093.47
2022-10-06T22:36:14.298Z,102089.00
2022-10-06T22:38:45.901Z,102082.72
2022-10-06T22:41:17.751Z,102057.88
2022-10-06T22:43:52.767Z,102078.22
2022-10-06T22:46:25.935Z,102063.13
2022-10-06T22:48:58.121Z,102084.44
2022-10-06T22:51:29.560Z,102074.66
2022-10-06T22:54:01.566Z,102078.16
2022-10-06T22:56:34.060Z,102075.41
2022-10-06T22:59:05.419Z,102078.94
2022-10-06T23:01:36.802Z,102063.84
2022-10-06T23:04:08.183Z,102065.59
2022-10-06T23:06:39.568Z,102072.56
2022-10-06T23:09:11.972Z,102068.13
2022-10-06T23:11:43.336Z,102066.34
2022-10-06T23:14:14.801Z,102061.91
2022-10-06T23:16:46.206Z,102056.63
2022-10-06T23:19:17.609Z,102060.13
2022-10-06T23:21:49.023Z,102060.09
2022-10-06T23:24:20.440Z,102056.53
2022-10-06T23:26:51.870Z,102055.63
2022-10-06T23:29:23.367Z,102054.75
2022-10-06T23:31:54.776Z,102042.38
2022-10-06T23:34:26.192Z,102042.41
2022-10-06T23:36:57.646Z,102043.22
2022-10-06T23:39:29.037Z,102039.75
2022-10-06T23:42:00.744Z,102045.00
2022-10-06T23:44:32.105Z,102020.19
2022-10-06T23:47:04.222Z,101998.91
2022-10-06T23:49:35.578Z,102030.78
2022-10-06T23:52:06.949Z,102042.28
2022-10-06T23:54:38.318Z,102046.66
2022-10-06T23:57:09.724Z,102028.94
2022-10-06T23:59:41.124Z,102045.72
